Flexbury, United Kingdom
Current Conditions -  °F | °C
As of 8:50 PM on Friday 21 Nov 2014 (Local Time) from EGHQ Reporting Station
Drizzle Drizzle  
Wind Chill: 55°   Ceiling: 300
Heat Index: 55°   Visibility: 4mi
Dew Point: 54°   Wind: 22mph
Humidity: 94%   Direction: 160°SSE
Pressure: 29.74"   Gusts: NA
Location:  50.84°N, 4.54°W
Report Text: EGHQ 212050Z 16019KT 6000 -DZ BKN003 13/12 Q1007
Loading
Personal Weather Stations






























Interactive Weather Map New forecast layout! Learn more

10-Day Weather Forecast

Advertisements
Track Severe Weather on mobile